sensor_id;sensor_type;location;lat;lon;timestamp;pressure;altitude;pressure_sealevel;temperature;humidity
72961;BME280;61141;46.204;19.774;2023-07-16T00:02:01;100303.72;;;20.91;81.77
72961;BME280;61141;46.204;19.774;2023-07-16T00:05:05;100305.94;;;20.96;81.63
72961;BME280;61141;46.204;19.774;2023-07-16T00:08:08;100288.91;;;20.94;81.30
72961;BME280;61141;46.204;19.774;2023-07-16T00:11:12;100301.59;;;21.12;80.80
72961;BME280;61141;46.204;19.774;2023-07-16T00:14:15;100300.16;;;21.20;80.55
72961;BME280;61141;46.204;19.774;2023-07-16T00:17:18;100301.28;;;21.22;80.45
72961;BME280;61141;46.204;19.774;2023-07-16T00:20:22;100298.37;;;21.26;80.31
72961;BME280;61141;46.204;19.774;2023-07-16T00:23:27;100276.84;;;21.14;80.07
72961;BME280;61141;46.204;19.774;2023-07-16T00:26:30;100301.87;;;21.01;80.92
72961;BME280;61141;46.204;19.774;2023-07-16T00:29:34;100315.09;;;20.97;81.73
72961;BME280;61141;46.204;19.774;2023-07-16T00:32:38;100309.13;;;20.82;82.52
72961;BME280;61141;46.204;19.774;2023-07-16T00:35:51;100277.63;;;20.57;82.55
72961;BME280;61141;46.204;19.774;2023-07-16T00:38:57;100278.50;;;20.82;82.41
72961;BME280;61141;46.204;19.774;2023-07-16T00:42:06;100287.78;;;20.92;81.78
72961;BME280;61141;46.204;19.774;2023-07-16T00:45:15;100288.28;;;21.03;81.35
72961;BME280;61141;46.204;19.774;2023-07-16T00:48:21;100281.75;;;21.10;80.69
72961;BME280;61141;46.204;19.774;2023-07-16T00:51:24;100274.19;;;20.94;81.06
72961;BME280;61141;46.204;19.774;2023-07-16T00:54:31;100292.19;;;20.77;82.07
72961;BME280;61141;46.204;19.774;2023-07-16T00:57:33;100298.78;;;20.83;82.40
72961;BME280;61141;46.204;19.774;2023-07-16T01:00:40;100276.84;;;20.56;82.82
72961;BME280;61141;46.204;19.774;2023-07-16T01:03:43;100300.94;;;20.46;84.02
72961;BME280;61141;46.204;19.774;2023-07-16T01:06:55;100262.41;;;20.32;83.76
72961;BME280;61141;46.204;19.774;2023-07-16T01:10:00;100277.09;;;20.62;83.10
72961;BME280;61141;46.204;19.774;2023-07-16T01:13:04;100283.41;;;20.78;82.88
72961;BME280;61141;46.204;19.774;2023-07-16T01:16:21;100292.09;;;20.80;82.78
72961;BME280;61141;46.204;19.774;2023-07-16T01:19:27;100264.47;;;20.73;82.63
72961;BME280;61141;46.204;19.774;2023-07-16T01:29:12;100296.00;;;20.83;82.38
72961;BME280;61141;46.204;19.774;2023-07-16T01:32:20;100289.62;;;20.82;82.31
72961;BME280;61141;46.204;19.774;2023-07-16T01:35:23;100260.44;;;20.45;82.79
72961;BME280;61141;46.204;19.774;2023-07-16T01:38:27;100275.47;;;20.77;82.73
72961;BME280;61141;46.204;19.774;2023-07-16T01:41:30;100281.75;;;20.81;83.20
72961;BME280;61141;46.204;19.774;2023-07-16T01:44:34;100260.41;;;20.62;82.43
72961;BME280;61141;46.204;19.774;2023-07-16T01:48:05;100251.34;;;20.58;83.02
72961;BME280;61141;46.204;19.774;2023-07-16T01:51:13;100262.31;;;20.65;82.77
72961;BME280;61141;46.204;19.774;2023-07-16T01:54:16;100240.81;;;20.36;83.41
72961;BME280;61141;46.204;19.774;2023-07-16T01:57:20;100273.56;;;20.45;83.92
72961;BME280;61141;46.204;19.774;2023-07-16T02:00:30;100260.84;;;20.60;83.81
72961;BME280;61141;46.204;19.774;2023-07-16T02:03:33;100262.22;;;20.68;83.33
72961;BME280;61141;46.204;19.774;2023-07-16T02:06:40;100249.59;;;20.64;83.71
72961;BME280;61141;46.204;19.774;2023-07-16T02:09:43;100245.91;;;20.54;83.26
72961;BME280;61141;46.204;19.774;2023-07-16T02:12:46;100260.44;;;20.45;83.61
72961;BME280;61141;46.204;19.774;2023-07-16T02:15:53;100263.87;;;20.66;83.10
72961;BME280;61141;46.204;19.774;2023-07-16T02:18:57;100268.41;;;20.60;83.49
72961;BME280;61141;46.204;19.774;2023-07-16T02:21:59;100258.66;;;20.68;83.32
72961;BME280;61141;46.204;19.774;2023-07-16T02:25:04;100238.31;;;20.26;84.33
72961;BME280;61141;46.204;19.774;2023-07-16T02:28:07;100229.34;;;20.34;83.94
72961;BME280;61141;46.204;19.774;2023-07-16T02:31:11;100255.41;;;20.40;84.26
72961;BME280;61141;46.204;19.774;2023-07-16T02:34:15;100263.31;;;20.42;84.55
72961;BME280;61141;46.204;19.774;2023-07-16T02:37:18;100260.34;;;20.49;84.44
72961;BME280;61141;46.204;19.774;2023-07-16T02:40:25;100238.97;;;20.30;84.16
72961;BME280;61141;46.204;19.774;2023-07-16T02:43:28;100264.03;;;20.30;84.70
72961;BME280;61141;46.204;19.774;2023-07-16T02:46:31;100252.72;;;20.37;84.29
72961;BME280;61141;46.204;19.774;2023-07-16T02:49:35;100252.62;;;20.40;84.58
72961;BME280;61141;46.204;19.774;2023-07-16T02:52:41;100254.81;;;20.17;84.73
72961;BME280;61141;46.204;19.774;2023-07-16T02:55:45;100270.00;;;20.44;84.51
72961;BME280;61141;46.204;19.774;2023-07-16T02:58:49;100272.19;;;20.37;84.82
72961;BME280;61141;46.204;19.774;2023-07-16T03:01:52;100268.28;;;20.18;85.65
72961;BME280;61141;46.204;19.774;2023-07-16T03:04:55;100231.62;;;20.07;84.89
72961;BME280;61141;46.204;19.774;2023-07-16T03:08:01;100243.63;;;20.04;85.40
72961;BME280;61141;46.204;19.774;2023-07-16T03:11:05;100236.13;;;20.01;85.62
72961;BME280;61141;46.204;19.774;2023-07-16T03:14:11;100260.28;;;20.36;85.35
72961;BME280;61141;46.204;19.774;2023-07-16T03:17:14;100270.19;;;20.37;85.48
72961;BME280;61141;46.204;19.774;2023-07-16T03:20:17;100248.81;;;20.18;85.34
72961;BME280;61141;46.204;19.774;2023-07-16T03:23:35;100275.84;;;20.34;85.61
72961;BME280;61141;46.204;19.774;2023-07-16T03:26:38;100274.69;;;20.47;85.54
72961;BME280;61141;46.204;19.774;2023-07-16T03:29:41;100281.13;;;20.44;85.29
72961;BME280;61141;46.204;19.774;2023-07-16T03:32:49;100257.59;;;20.33;84.89
72961;BME280;61141;46.204;19.774;2023-07-16T03:35:55;100283.06;;;20.31;85.79
72961;BME280;61141;46.204;19.774;2023-07-16T03:38:58;100247.31;;;20.14;85.99
72961;BME280;61141;46.204;19.774;2023-07-16T03:42:02;100262.41;;;20.32;85.76
72961;BME280;61141;46.204;19.774;2023-07-16T03:45:05;100263.41;;;20.38;85.41
72961;BME280;61141;46.204;19.774;2023-07-16T03:48:08;100265.06;;;20.36;85.78
72961;BME280;61141;46.204;19.774;2023-07-16T03:51:12;100251.66;;;20.47;85.20
72961;BME280;61141;46.204;19.774;2023-07-16T03:54:23;100272.62;;;20.52;85.91
72961;BME280;61141;46.204;19.774;2023-07-16T03:57:30;100273.03;;;20.50;86.42
72961;BME280;61141;46.204;19.774;2023-07-16T04:00:34;100284.81;;;20.70;85.91
72961;BME280;61141;46.204;19.774;2023-07-16T04:03:37;100266.00;;;20.74;85.51
72961;BME280;61141;46.204;19.774;2023-07-16T04:06:40;100274.78;;;21.01;85.16
72961;BME280;61141;46.204;19.774;2023-07-16T04:09:44;100287.75;;;21.08;84.81
72961;BME280;61141;46.204;19.774;2023-07-16T04:12:47;100263.09;;;21.06;84.14
72961;BME280;61141;46.204;19.774;2023-07-16T04:15:50;100288.22;;;21.19;84.32
72961;BME280;61141;46.204;19.774;2023-07-16T04:18:55;100269.19;;;21.30;84.03
72961;BME280;61141;46.204;19.774;2023-07-16T04:21:58;100264.63;;;21.36;83.96
72961;BME280;61141;46.204;19.774;2023-07-16T04:25:03;100269.66;;;21.66;82.98
72961;BME280;61141;46.204;19.774;2023-07-16T04:28:07;100291.09;;;21.95;82.13
72961;BME280;61141;46.204;19.774;2023-07-16T04:31:10;100261.28;;;21.92;82.22
72961;BME280;61141;46.204;19.774;2023-07-16T04:34:13;100301.03;;;22.43;81.52
72961;BME280;61141;46.204;19.774;2023-07-16T04:37:16;100292.22;;;22.44;80.88
72961;BME280;61141;46.204;19.774;2023-07-16T04:40:21;100309.50;;;22.64;80.30
72961;BME280;61141;46.204;19.774;2023-07-16T04:43:24;100314.75;;;22.84;79.82
72961;BME280;61141;46.204;19.774;2023-07-16T04:46:27;100283.12;;;22.87;79.49
72961;BME280;61141;46.204;19.774;2023-07-16T04:49:35;100294.94;;;23.13;78.91
72961;BME280;61141;46.204;19.774;2023-07-16T04:52:41;100289.09;;;23.42;77.85
72961;BME280;61141;46.204;19.774;2023-07-16T04:55:45;100310.12;;;23.86;77.04
72961;BME280;61141;46.204;19.774;2023-07-16T04:58:48;100283.38;;;23.85;76.41
72961;BME280;61141;46.204;19.774;2023-07-16T05:01:50;100309.78;;;24.24;76.21
72961;BME280;61141;46.204;19.774;2023-07-16T05:04:54;100313.41;;;24.51;75.79
72961;BME280;61141;46.204;19.774;2023-07-16T05:07:57;100311.56;;;24.76;74.84
72961;BME280;61141;46.204;19.774;2023-07-16T05:11:01;100315.31;;;25.00;74.16
72961;BME280;61141;46.204;19.774;2023-07-16T05:14:04;100293.34;;;25.07;73.46
72961;BME280;61141;46.204;19.774;2023-07-16T05:17:07;100312.94;;;25.26;73.64
72961;BME280;61141;46.204;19.774;2023-07-16T05:20:13;100320.66;;;25.58;72.78
72961;BME280;61141;46.204;19.774;2023-07-16T05:23:17;100308.19;;;25.68;72.53
72961;BME280;61141;46.204;19.774;2023-07-16T05:26:20;100311.53;;;25.81;72.55
72961;BME280;61141;46.204;19.774;2023-07-16T05:29:27;100310.34;;;26.06;71.50
72961;BME280;61141;46.204;19.774;2023-07-16T05:32:30;100304.69;;;26.15;71.02
72961;BME280;61141;46.204;19.774;2023-07-16T05:35:34;100328.28;;;26.32;71.23
72961;BME280;61141;46.204;19.774;2023-07-16T05:38:37;100293.50;;;26.30;71.01
72961;BME280;61141;46.204;19.774;2023-07-16T05:41:47;100325.37;;;26.50;70.49
72961;BME280;61141;46.204;19.774;2023-07-16T05:44:56;100329.25;;;26.53;70.87
72961;BME280;61141;46.204;19.774;2023-07-16T05:48:10;100330.94;;;26.83;70.24
72961;BME280;61141;46.204;19.774;2023-07-16T05:51:13;100325.25;;;27.07;69.59
72961;BME280;61141;46.204;19.774;2023-07-16T05:54:17;100342.06;;;27.30;68.93
72961;BME280;61141;46.204;19.774;2023-07-16T05:57:23;100324.78;;;27.37;68.04
72961;BME280;61141;46.204;19.774;2023-07-16T06:00:28;100335.97;;;27.47;68.16
72961;BME280;61141;46.204;19.774;2023-07-16T06:03:32;100331.28;;;27.73;66.94
72961;BME280;61141;46.204;19.774;2023-07-16T06:06:34;100344.47;;;27.96;66.75
72961;BME280;61141;46.204;19.774;2023-07-16T06:09:38;100322.53;;;28.00;65.95
72961;BME280;61141;46.204;19.774;2023-07-16T06:12:41;100350.13;;;28.31;65.86
72961;BME280;61141;46.204;19.774;2023-07-16T06:15:46;100334.53;;;28.15;66.20
72961;BME280;61141;46.204;19.774;2023-07-16T06:18:49;100328.50;;;28.42;65.54
72961;BME280;61141;46.204;19.774;2023-07-16T06:21:53;100328.97;;;28.55;64.67
72961;BME280;61141;46.204;19.774;2023-07-16T06:24:56;100350.59;;;28.84;64.58
72961;BME280;61141;46.204;19.774;2023-07-16T06:27:59;100349.75;;;28.78;64.81
72961;BME280;61141;46.204;19.774;2023-07-16T06:31:02;100336.91;;;28.97;63.85
72961;BME280;61141;46.204;19.774;2023-07-16T06:34:05;100333.66;;;29.04;63.00
72961;BME280;61141;46.204;19.774;2023-07-16T06:37:08;100329.78;;;29.02;63.46
72961;BME280;61141;46.204;19.774;2023-07-16T06:40:12;100331.16;;;29.12;63.15
72961;BME280;61141;46.204;19.774;2023-07-16T06:43:18;100322.47;;;29.16;63.02
72961;BME280;61141;46.204;19.774;2023-07-16T06:46:21;100340.66;;;29.35;62.96
72961;BME280;61141;46.204;19.774;2023-07-16T06:49:24;100324.00;;;29.37;62.80
72961;BME280;61141;46.204;19.774;2023-07-16T06:52:29;100335.16;;;29.51;62.28
72961;BME280;61141;46.204;19.774;2023-07-16T06:55:33;100325.59;;;29.75;61.86
72961;BME280;61141;46.204;19.774;2023-07-16T06:58:36;100329.84;;;29.90;61.18
72961;BME280;61141;46.204;19.774;2023-07-16T07:01:39;100327.25;;;29.87;61.13
72961;BME280;61141;46.204;19.774;2023-07-16T07:04:42;100338.72;;;30.09;60.16
72961;BME280;61141;46.204;19.774;2023-07-16T07:07:45;100320.19;;;30.08;59.56
72961;BME280;61141;46.204;19.774;2023-07-16T07:10:49;100331.38;;;30.28;59.53
72961;BME280;61141;46.204;19.774;2023-07-16T07:13:52;100325.22;;;30.30;59.09
72961;BME280;61141;46.204;19.774;2023-07-16T07:16:55;100305.81;;;30.48;58.44
72961;BME280;61141;46.204;19.774;2023-07-16T07:19:58;100305.37;;;30.72;57.77
72961;BME280;61141;46.204;19.774;2023-07-16T07:23:01;100327.31;;;30.94;57.84
72961;BME280;61141;46.204;19.774;2023-07-16T07:26:05;100332.69;;;30.92;57.29
72961;BME280;61141;46.204;19.774;2023-07-16T07:29:08;100326.34;;;31.19;56.76
72961;BME280;61141;46.204;19.774;2023-07-16T07:32:12;100333.56;;;31.20;55.96
72961;BME280;61141;46.204;19.774;2023-07-16T07:35:15;100322.53;;;31.33;55.70
72961;BME280;61141;46.204;19.774;2023-07-16T07:38:24;100321.25;;;31.45;55.05
72961;BME280;61141;46.204;19.774;2023-07-16T07:41:33;100326.16;;;31.45;55.44
72961;BME280;61141;46.204;19.774;2023-07-16T07:44:53;100312.78;;;31.56;54.55
72961;BME280;61141;46.204;19.774;2023-07-16T07:47:57;100328.22;;;31.72;54.65
72961;BME280;61141;46.204;19.774;2023-07-16T07:51:00;100323.59;;;31.80;53.87
72961;BME280;61141;46.204;19.774;2023-07-16T07:54:03;100303.47;;;31.94;53.81
72961;BME280;61141;46.204;19.774;2023-07-16T07:57:06;100330.22;;;32.27;52.30
72961;BME280;61141;46.204;19.774;2023-07-16T08:00:10;100326.62;;;32.26;52.69
72961;BME280;61141;46.204;19.774;2023-07-16T08:03:16;100316.59;;;32.25;52.12
72961;BME280;61141;46.204;19.774;2023-07-16T08:06:19;100303.94;;;32.26;51.77
72961;BME280;61141;46.204;19.774;2023-07-16T08:09:23;100314.19;;;32.40;50.72
72961;BME280;61141;46.204;19.774;2023-07-16T08:12:25;100337.62;;;32.52;50.94
72961;BME280;61141;46.204;19.774;2023-07-16T08:15:31;100296.06;;;32.66;50.32
72961;BME280;61141;46.204;19.774;2023-07-16T08:18:34;100303.81;;;32.65;49.13
72961;BME280;61141;46.204;19.774;2023-07-16T08:21:37;100325.06;;;32.99;48.11
72961;BME280;61141;46.204;19.774;2023-07-16T08:24:40;100311.09;;;33.01;48.69
72961;BME280;61141;46.204;19.774;2023-07-16T08:27:43;100312.59;;;33.14;48.00
72961;BME280;61141;46.204;19.774;2023-07-16T08:30:47;100317.88;;;33.34;47.90
72961;BME280;61141;46.204;19.774;2023-07-16T08:33:51;100312.41;;;33.41;47.66
72961;BME280;61141;46.204;19.774;2023-07-16T08:36:54;100306.19;;;33.73;47.05
72961;BME280;61141;46.204;19.774;2023-07-16T08:39:57;100300.00;;;33.74;46.90
72961;BME280;61141;46.204;19.774;2023-07-16T08:43:00;100315.47;;;33.79;47.08
72961;BME280;61141;46.204;19.774;2023-07-16T08:46:03;100314.31;;;33.63;46.65
72961;BME280;61141;46.204;19.774;2023-07-16T08:49:07;100319.88;;;34.04;46.00
72961;BME280;61141;46.204;19.774;2023-07-16T08:52:14;100325.37;;;33.96;45.28
72961;BME280;61141;46.204;19.774;2023-07-16T08:55:20;100335.00;;;34.17;44.59
72961;BME280;61141;46.204;19.774;2023-07-16T08:58:23;100311.78;;;34.13;44.59
72961;BME280;61141;46.204;19.774;2023-07-16T09:01:27;100328.25;;;34.20;44.11
72961;BME280;61141;46.204;19.774;2023-07-16T09:04:32;100309.75;;;34.08;43.88
72961;BME280;61141;46.204;19.774;2023-07-16T09:07:35;100325.53;;;34.52;43.09
72961;BME280;61141;46.204;19.774;2023-07-16T09:10:42;100320.84;;;34.79;42.67
72961;BME280;61141;46.204;19.774;2023-07-16T09:13:45;100313.16;;;34.74;40.31
72961;BME280;61141;46.204;19.774;2023-07-16T09:16:52;100318.37;;;34.89;40.41
72961;BME280;61141;46.204;19.774;2023-07-16T09:19:56;100318.37;;;34.70;41.15
72961;BME280;61141;46.204;19.774;2023-07-16T09:22:59;100293.44;;;34.76;40.08
72961;BME280;61141;46.204;19.774;2023-07-16T09:26:03;100308.50;;;35.27;39.70
72961;BME280;61141;46.204;19.774;2023-07-16T09:29:09;100308.00;;;35.42;39.73
72961;BME280;61141;46.204;19.774;2023-07-16T09:32:12;100310.72;;;35.34;39.14
72961;BME280;61141;46.204;19.774;2023-07-16T09:35:17;100285.53;;;35.38;38.95
72961;BME280;61141;46.204;19.774;2023-07-16T09:38:20;100275.34;;;35.43;39.24
72961;BME280;61141;46.204;19.774;2023-07-16T09:41:25;100306.16;;;35.12;39.04
72961;BME280;61141;46.204;19.774;2023-07-16T09:44:28;100307.25;;;35.73;38.64
72961;BME280;61141;46.204;19.774;2023-07-16T09:47:38;100301.66;;;35.67;38.46
72961;BME280;61141;46.204;19.774;2023-07-16T09:50:50;100287.31;;;35.99;37.96
72961;BME280;61141;46.204;19.774;2023-07-16T09:53:57;100283.41;;;36.28;37.39
72961;BME280;61141;46.204;19.774;2023-07-16T09:57:02;100281.44;;;36.36;36.67
72961;BME280;61141;46.204;19.774;2023-07-16T10:00:09;100274.16;;;35.96;36.91
72961;BME280;61141;46.204;19.774;2023-07-16T10:03:20;100303.16;;;36.39;37.00
72961;BME280;61141;46.204;19.774;2023-07-16T10:06:23;100277.87;;;36.43;36.46
72961;BME280;61141;46.204;19.774;2023-07-16T10:12:37;100289.25;;;36.83;34.84
72961;BME280;61141;46.204;19.774;2023-07-16T10:15:52;100279.50;;;36.78;34.56
72961;BME280;61141;46.204;19.774;2023-07-16T10:18:58;100282.16;;;37.10;34.32
72961;BME280;61141;46.204;19.774;2023-07-16T10:22:03;100281.41;;;37.30;34.40
72961;BME280;61141;46.204;19.774;2023-07-16T10:28:23;100280.91;;;36.85;35.17
72961;BME280;61141;46.204;19.774;2023-07-16T10:31:26;100256.91;;;37.01;34.90
72961;BME280;61141;46.204;19.774;2023-07-16T10:34:30;100254.53;;;37.46;33.84
72961;BME280;61141;46.204;19.774;2023-07-16T10:37:33;100244.50;;;37.40;32.93
72961;BME280;61141;46.204;19.774;2023-07-16T10:40:44;100268.44;;;37.29;32.66
72961;BME280;61141;46.204;19.774;2023-07-16T10:43:49;100243.22;;;35.87;34.69
72961;BME280;61141;46.204;19.774;2023-07-16T10:46:56;100238.09;;;36.72;33.90
72961;BME280;61141;46.204;19.774;2023-07-16T10:50:02;100236.72;;;36.52;33.04
72961;BME280;61141;46.204;19.774;2023-07-16T10:53:06;100258.28;;;36.87;32.93
72961;BME280;61141;46.204;19.774;2023-07-16T10:56:10;100242.56;;;37.35;32.58
72961;BME280;61141;46.204;19.774;2023-07-16T10:59:13;100243.94;;;37.83;31.69
72961;BME280;61141;46.204;19.774;2023-07-16T11:02:18;100242.31;;;37.95;31.72
72961;BME280;61141;46.204;19.774;2023-07-16T11:05:22;100249.94;;;37.92;32.05
72961;BME280;61141;46.204;19.774;2023-07-16T11:08:29;100248.22;;;37.27;32.77
72961;BME280;61141;46.204;19.774;2023-07-16T11:11:36;100224.03;;;37.70;31.64
72961;BME280;61141;46.204;19.774;2023-07-16T11:14:46;100234.66;;;37.90;31.36
72961;BME280;61141;46.204;19.774;2023-07-16T11:17:50;100249.84;;;38.41;30.86
72961;BME280;61141;46.204;19.774;2023-07-16T11:20:57;100248.72;;;38.08;30.96
72961;BME280;61141;46.204;19.774;2023-07-16T11:24:09;100226.81;;;38.18;30.79
72961;BME280;61141;46.204;19.774;2023-07-16T11:30:22;100244.31;;;36.96;32.38
72961;BME280;61141;46.204;19.774;2023-07-16T11:33:34;100240.06;;;36.77;32.32
72961;BME280;61141;46.204;19.774;2023-07-16T11:36:38;100224.50;;;36.98;32.48
72961;BME280;61141;46.204;19.774;2023-07-16T11:39:41;100231.34;;;36.35;32.98
72961;BME280;61141;46.204;19.774;2023-07-16T11:42:45;100218.81;;;36.51;33.25
72961;BME280;61141;46.204;19.774;2023-07-16T11:45:48;100215.91;;;37.12;32.23
72961;BME280;61141;46.204;19.774;2023-07-16T11:48:52;100242.44;;;37.40;31.52
72961;BME280;61141;46.204;19.774;2023-07-16T11:51:54;100213.78;;;37.33;31.93
72961;BME280;61141;46.204;19.774;2023-07-16T11:54:58;100243.97;;;37.00;32.26
72961;BME280;61141;46.204;19.774;2023-07-16T11:58:07;100228.16;;;36.86;32.43
72961;BME280;61141;46.204;19.774;2023-07-16T12:01:25;100227.37;;;37.40;31.58
72961;BME280;61141;46.204;19.774;2023-07-16T12:04:28;100217.34;;;37.46;30.91
72961;BME280;61141;46.204;19.774;2023-07-16T12:07:36;100209.34;;;37.03;31.83
72961;BME280;61141;46.204;19.774;2023-07-16T12:10:40;100212.00;;;36.88;31.99
72961;BME280;61141;46.204;19.774;2023-07-16T12:13:43;100228.41;;;37.71;31.22
72961;BME280;61141;46.204;19.774;2023-07-16T12:16:47;100215.84;;;37.74;30.14
72961;BME280;61141;46.204;19.774;2023-07-16T12:19:50;100219.50;;;37.82;30.06
72961;BME280;61141;46.204;19.774;2023-07-16T12:22:55;100216.63;;;38.38;29.40
72961;BME280;61141;46.204;19.774;2023-07-16T12:25:58;100214.94;;;38.50;29.39
72961;BME280;61141;46.204;19.774;2023-07-16T12:29:02;100198.34;;;38.13;29.97
72961;BME280;61141;46.204;19.774;2023-07-16T12:32:08;100205.16;;;37.74;30.85
72961;BME280;61141;46.204;19.774;2023-07-16T12:35:12;100190.34;;;37.34;31.25
72961;BME280;61141;46.204;19.774;2023-07-16T12:38:15;100200.78;;;37.45;30.95
72961;BME280;61141;46.204;19.774;2023-07-16T12:41:18;100197.88;;;37.94;30.58
72961;BME280;61141;46.204;19.774;2023-07-16T12:44:21;100183.44;;;38.50;29.65
72961;BME280;61141;46.204;19.774;2023-07-16T12:47:24;100209.31;;;38.30;29.16
72961;BME280;61141;46.204;19.774;2023-07-16T12:50:27;100181.66;;;37.96;29.56
72961;BME280;61141;46.204;19.774;2023-07-16T12:53:33;100214.22;;;38.57;28.99
72961;BME280;61141;46.204;19.774;2023-07-16T12:56:36;100189.75;;;38.49;29.10
72961;BME280;61141;46.204;19.774;2023-07-16T12:59:40;100197.78;;;38.58;28.50
72961;BME280;61141;46.204;19.774;2023-07-16T13:02:43;100200.34;;;38.92;28.86
72961;BME280;61141;46.204;19.774;2023-07-16T13:05:47;100200.66;;;38.58;28.33
72961;BME280;61141;46.204;19.774;2023-07-16T13:08:50;100199.75;;;38.27;29.31
72961;BME280;61141;46.204;19.774;2023-07-16T13:11:54;100189.56;;;37.83;29.67
72961;BME280;61141;46.204;19.774;2023-07-16T13:14:58;100200.25;;;38.10;29.84
72961;BME280;61141;46.204;19.774;2023-07-16T13:18:02;100185.19;;;37.33;31.44
72961;BME280;61141;46.204;19.774;2023-07-16T13:21:05;100186.09;;;37.77;31.05
72961;BME280;61141;46.204;19.774;2023-07-16T13:24:08;100193.50;;;38.00;30.52
72961;BME280;61141;46.204;19.774;2023-07-16T13:27:20;100177.13;;;38.44;29.89
72961;BME280;61141;46.204;19.774;2023-07-16T13:30:25;100199.59;;;38.84;29.85
72961;BME280;61141;46.204;19.774;2023-07-16T13:33:28;100191.56;;;38.90;29.89
72961;BME280;61141;46.204;19.774;2023-07-16T13:36:34;100197.16;;;39.18;29.80
72961;BME280;61141;46.204;19.774;2023-07-16T13:39:37;100170.53;;;38.21;30.74
72961;BME280;61141;46.204;19.774;2023-07-16T13:42:40;100176.28;;;38.87;30.03
72961;BME280;61141;46.204;19.774;2023-07-16T13:45:44;100197.97;;;38.60;30.82
72961;BME280;61141;46.204;19.774;2023-07-16T13:48:48;100174.38;;;38.90;30.31
72961;BME280;61141;46.204;19.774;2023-07-16T13:52:03;100201.78;;;38.55;31.17
72961;BME280;61141;46.204;19.774;2023-07-16T13:55:08;100202.25;;;38.82;31.14
72961;BME280;61141;46.204;19.774;2023-07-16T13:58:19;100183.03;;;38.39;31.33
72961;BME280;61141;46.204;19.774;2023-07-16T14:02:02;100193.88;;;37.97;32.39
72961;BME280;61141;46.204;19.774;2023-07-16T14:05:57;100194.25;;;37.93;32.18
72961;BME280;61141;46.204;19.774;2023-07-16T14:14:25;100187.00;;;39.09;30.39
72961;BME280;61141;46.204;19.774;2023-07-16T14:18:12;100184.25;;;37.87;31.45
72961;BME280;61141;46.204;19.774;2023-07-16T14:21:20;100168.25;;;38.27;30.17
72961;BME280;61141;46.204;19.774;2023-07-16T14:24:31;100178.28;;;38.41;30.03
72961;BME280;61141;46.204;19.774;2023-07-16T14:27:41;100180.97;;;38.47;30.36
72961;BME280;61141;46.204;19.774;2023-07-16T14:31:10;100179.66;;;38.70;29.79
72961;BME280;61141;46.204;19.774;2023-07-16T14:34:36;100174.00;;;38.86;29.85
72961;BME280;61141;46.204;19.774;2023-07-16T14:41:27;100173.09;;;39.21;29.07
72961;BME280;61141;46.204;19.774;2023-07-16T14:44:30;100118.19;;;37.70;30.93
72961;BME280;61141;46.204;19.774;2023-07-16T14:47:35;100162.28;;;38.17;30.99
72961;BME280;61141;46.204;19.774;2023-07-16T14:50:40;100170.09;;;38.09;31.41
72961;BME280;61141;46.204;19.774;2023-07-16T14:53:55;100164.88;;;38.00;31.52
72961;BME280;61141;46.204;19.774;2023-07-16T15:01:26;100174.94;;;38.81;30.02
72961;BME280;61141;46.204;19.774;2023-07-16T15:04:49;100142.06;;;38.15;30.78
72961;BME280;61141;46.204;19.774;2023-07-16T15:07:54;100139.28;;;37.87;31.35
72961;BME280;61141;46.204;19.774;2023-07-16T15:11:00;100148.53;;;38.08;31.38
72961;BME280;61141;46.204;19.774;2023-07-16T15:14:16;100161.47;;;38.53;30.76
72961;BME280;61141;46.204;19.774;2023-07-16T15:17:19;100131.56;;;38.10;30.51
72961;BME280;61141;46.204;19.774;2023-07-16T15:20:24;100138.09;;;38.26;30.66
72961;BME280;61141;46.204;19.774;2023-07-16T15:23:31;100154.53;;;37.90;31.16
72961;BME280;61141;46.204;19.774;2023-07-16T15:26:42;100156.81;;;38.27;30.49
72961;BME280;61141;46.204;19.774;2023-07-16T15:29:48;100173.75;;;38.68;29.90
72961;BME280;61141;46.204;19.774;2023-07-16T15:32:57;100148.63;;;37.88;31.14
72961;BME280;61141;46.204;19.774;2023-07-16T15:36:01;100092.28;;;37.75;30.93
72961;BME280;61141;46.204;19.774;2023-07-16T15:39:07;100150.06;;;37.81;31.39
72961;BME280;61141;46.204;19.774;2023-07-16T15:42:10;100117.75;;;37.09;32.27
72961;BME280;61141;46.204;19.774;2023-07-16T15:45:14;100159.13;;;37.64;32.00
72961;BME280;61141;46.204;19.774;2023-07-16T15:48:19;100152.00;;;37.50;32.63
72961;BME280;61141;46.204;19.774;2023-07-16T15:51:25;100157.62;;;37.92;31.75
72961;BME280;61141;46.204;19.774;2023-07-16T15:54:30;100134.91;;;37.58;32.44
72961;BME280;61141;46.204;19.774;2023-07-16T15:57:34;100149.50;;;37.26;32.43
72961;BME280;61141;46.204;19.774;2023-07-16T16:00:38;100175.41;;;37.00;33.10
72961;BME280;61141;46.204;19.774;2023-07-16T16:03:42;100154.94;;;36.75;33.41
72961;BME280;61141;46.204;19.774;2023-07-16T16:06:48;100153.28;;;37.21;33.05
72961;BME280;61141;46.204;19.774;2023-07-16T16:09:51;100147.72;;;36.95;33.24
72961;BME280;61141;46.204;19.774;2023-07-16T16:12:54;100175.09;;;37.52;32.75
72961;BME280;61141;46.204;19.774;2023-07-16T16:15:59;100161.78;;;37.62;32.73
72961;BME280;61141;46.204;19.774;2023-07-16T16:19:02;100163.94;;;37.70;32.46
72961;BME280;61141;46.204;19.774;2023-07-16T16:22:07;100165.78;;;37.59;33.07
72961;BME280;61141;46.204;19.774;2023-07-16T16:25:10;100151.44;;;37.52;33.21
72961;BME280;61141;46.204;19.774;2023-07-16T16:28:16;100159.28;;;37.31;33.62